Time;durP1;ratioP1;P1;durP2;ratioP2;P2;SDS_P1;SDS_P2;PMS_P1;PMS_P2;Temp;Humidity;BMP_temperature;BMP_pressure;BME280_temperature;BME280_humidity;BME280_pressure;Samples;Min_cycle;Max_cycle;Signal;HPM_P1;HPM_P2
2023/07/25 00:03:33;;;;;;;1.33;1.23;;;;;;;;;;8246396;28;20049;-72
2023/07/25 00:07:33;;;;;;;2.00;1.33;;;;;;;;;;8226896;28;20092;-71
2023/07/25 00:11:34;;;;;;;1.35;1.10;;;;;;;;;;8245229;28;20291;-72
2023/07/25 00:15:34;;;;;;;1.88;1.27;;;;;;;;;;8245518;28;20037;-72
2023/07/25 00:19:34;;;;;;;2.20;1.25;;;;;;;;;;8242133;28;20836;-72
2023/07/25 00:23:34;;;;;;;1.63;1.20;;;;;;;;;;8228065;28;20026;-72
2023/07/25 00:27:35;;;;;;;1.73;1.00;;;;;;;;;;8247472;28;20032;-71
2023/07/25 00:31:35;;;;;;;1.60;1.00;;;;;;;;;;8226362;28;20036;-72
2023/07/25 00:35:35;;;;;;;2.50;1.02;;;;;;;;;;8242364;28;20034;-71
2023/07/25 00:39:35;;;;;;;1.30;1.20;;;;;;;;;;8244885;28;20050;-71
2023/07/25 00:43:35;;;;;;;1.42;1.20;;;;;;;;;;8244679;28;20044;-72
2023/07/25 00:47:35;;;;;;;1.80;0.90;;;;;;;;;;8242463;28;20030;-72
2023/07/25 00:51:36;;;;;;;2.55;1.20;;;;;;;;;;8225709;28;20059;-72
2023/07/25 00:55:37;;;;;;;2.88;1.10;;;;;;;;;;8240640;28;20077;-72
2023/07/25 00:59:37;;;;;;;1.90;1.10;;;;;;;;;;8244670;28;20034;-72
2023/07/25 01:03:38;;;;;;;1.77;1.17;;;;;;;;;;8245489;28;20049;-72
2023/07/25 01:07:40;;;;;;;1.40;1.13;;;;;;;;;;8234648;28;20149;-72
2023/07/25 01:11:40;;;;;;;1.10;1.10;;;;;;;;;;8244780;28;20508;-71
2023/07/25 01:15:40;;;;;;;1.75;1.00;;;;;;;;;;8242457;28;20061;-71
2023/07/25 01:19:43;;;;;;;1.30;1.15;;;;;;;;;;8242617;28;20041;-71
2023/07/25 01:23:43;;;;;;;1.20;1.10;;;;;;;;;;8243673;28;21014;-71
2023/07/25 01:27:43;;;;;;;4.32;1.30;;;;;;;;;;8230046;28;20440;-71
2023/07/25 01:31:44;;;;;;;1.40;1.20;;;;;;;;;;8242196;28;20091;-71
2023/07/25 01:35:44;;;;;;;1.80;1.20;;;;;;;;;;8241627;28;20414;-71
2023/07/25 01:39:44;;;;;;;2.67;1.10;;;;;;;;;;8242082;28;20029;-71
2023/07/25 01:43:44;;;;;;;1.23;1.13;;;;;;;;;;8242878;28;20038;-71
2023/07/25 01:47:44;;;;;;;1.42;1.10;;;;;;;;;;8241970;28;20132;-71
2023/07/25 01:51:44;;;;;;;1.42;1.10;;;;;;;;;;8240366;28;20022;-71
2023/07/25 01:55:45;;;;;;;1.13;1.00;;;;;;;;;;8245858;28;20026;-71
2023/07/25 01:59:45;;;;;;;4.00;1.23;;;;;;;;;;8243868;28;20026;-71
2023/07/25 02:03:45;;;;;;;1.30;1.20;;;;;;;;;;8238119;28;20056;-71
2023/07/25 02:07:46;;;;;;;2.43;1.27;;;;;;;;;;8242313;28;20065;-71
2023/07/25 02:11:46;;;;;;;1.60;0.98;;;;;;;;;;8241488;28;20728;-72
2023/07/25 02:15:46;;;;;;;1.10;1.10;;;;;;;;;;8242780;28;20113;-72
2023/07/25 02:19:46;;;;;;;1.42;1.10;;;;;;;;;;8241569;28;20022;-72
2023/07/25 02:23:47;;;;;;;1.00;1.00;;;;;;;;;;8223113;28;20038;-72
2023/07/25 02:27:47;;;;;;;1.17;0.95;;;;;;;;;;8241774;28;20080;-72
2023/07/25 02:31:47;;;;;;;1.30;1.25;;;;;;;;;;8242839;28;20035;-71
2023/07/25 02:35:47;;;;;;;1.20;1.20;;;;;;;;;;8242099;28;20025;-71
2023/07/25 02:39:47;;;;;;;1.25;1.00;;;;;;;;;;8237900;28;20485;-71
2023/07/25 02:43:47;;;;;;;1.23;1.20;;;;;;;;;;8241189;28;20053;-71
2023/07/25 02:47:48;;;;;;;6.72;1.13;;;;;;;;;;8237008;28;20042;-71
2023/07/25 02:51:48;;;;;;;1.23;1.13;;;;;;;;;;8236735;28;20093;-71
2023/07/25 02:55:48;;;;;;;1.60;1.10;;;;;;;;;;8241212;28;20570;-71
2023/07/25 02:59:48;;;;;;;1.30;1.20;;;;;;;;;;8245932;28;20134;-71
2023/07/25 03:03:48;;;;;;;2.85;1.20;;;;;;;;;;8226821;28;20029;-71
2023/07/25 03:07:49;;;;;;;1.23;1.10;;;;;;;;;;8244285;28;20052;-70
2023/07/25 03:11:49;;;;;;;3.90;1.20;;;;;;;;;;8248978;28;20030;-70
2023/07/25 03:15:49;;;;;;;2.50;1.27;;;;;;;;;;8247993;28;20031;-71
2023/07/25 03:19:50;;;;;;;1.53;1.20;;;;;;;;;;8246910;28;20022;-72
2023/07/25 03:23:51;;;;;;;1.20;1.10;;;;;;;;;;8248987;28;20034;-71
2023/07/25 03:27:51;;;;;;;1.40;1.20;;;;;;;;;;8246814;28;20581;-71
2023/07/25 03:31:51;;;;;;;1.10;1.10;;;;;;;;;;8249736;28;20042;-71
2023/07/25 03:35:52;;;;;;;2.15;1.20;;;;;;;;;;8247556;28;20034;-72
2023/07/25 03:39:52;;;;;;;1.98;1.00;;;;;;;;;;8248207;28;20116;-72
2023/07/25 03:43:52;;;;;;;1.27;1.05;;;;;;;;;;8249199;28;20022;-72
2023/07/25 03:47:53;;;;;;;1.75;1.20;;;;;;;;;;8245584;28;20837;-71
2023/07/25 03:51:53;;;;;;;1.63;1.20;;;;;;;;;;8263507;28;20412;-72
2023/07/25 03:55:53;;;;;;;1.23;1.10;;;;;;;;;;8253722;28;20030;-72
2023/07/25 03:59:54;;;;;;;1.83;1.40;;;;;;;;;;8263100;28;20029;-71
2023/07/25 04:03:54;;;;;;;2.17;1.20;;;;;;;;;;8256431;28;20038;-71
2023/07/25 04:07:54;;;;;;;1.92;1.20;;;;;;;;;;8247057;28;20060;-71
2023/07/25 04:11:54;;;;;;;2.92;1.10;;;;;;;;;;8251425;28;20044;-71
2023/07/25 04:15:55;;;;;;;1.35;1.25;;;;;;;;;;8249904;28;20041;-72
2023/07/25 04:19:55;;;;;;;1.20;1.10;;;;;;;;;;8249705;28;20490;-71
2023/07/25 04:23:55;;;;;;;1.20;1.13;;;;;;;;;;8248030;28;20038;-72
2023/07/25 04:27:57;;;;;;;2.88;1.30;;;;;;;;;;8266969;28;20050;-72
2023/07/25 04:31:58;;;;;;;2.67;1.55;;;;;;;;;;8267177;28;20040;-73
2023/07/25 04:35:58;;;;;;;3.97;1.40;;;;;;;;;;8260887;28;20030;-71
2023/07/25 04:39:58;;;;;;;2.75;1.20;;;;;;;;;;8248947;28;20029;-71
2023/07/25 04:43:58;;;;;;;2.30;1.30;;;;;;;;;;8257666;28;20034;-72
2023/07/25 04:47:59;;;;;;;3.92;1.27;;;;;;;;;;8278947;28;20106;-71
2023/07/25 04:51:59;;;;;;;2.88;1.40;;;;;;;;;;8264754;28;20030;-70
2023/07/25 04:56:02;;;;;;;1.48;1.35;;;;;;;;;;8260458;28;20144;-74
2023/07/25 05:00:03;;;;;;;2.90;1.40;;;;;;;;;;8266696;28;20022;-72
2023/07/25 05:04:04;;;;;;;1.77;1.50;;;;;;;;;;8262577;28;20502;-72
2023/07/25 05:08:05;;;;;;;4.90;1.88;;;;;;;;;;8270888;28;20053;-71
2023/07/25 05:12:06;;;;;;;2.95;1.40;;;;;;;;;;8260316;28;20100;-71
2023/07/25 05:16:06;;;;;;;2.50;1.42;;;;;;;;;;8261452;28;20121;-71
2023/07/25 05:20:06;;;;;;;1.45;1.30;;;;;;;;;;8245255;28;20977;-71
2023/07/25 05:24:07;;;;;;;1.58;1.40;;;;;;;;;;8247092;28;20026;-71
2023/07/25 05:28:07;;;;;;;1.50;1.40;;;;;;;;;;8244290;28;20104;-71
2023/07/25 05:32:08;;;;;;;3.67;1.75;;;;;;;;;;8244613;28;20037;-71
2023/07/25 05:36:08;;;;;;;1.95;1.67;;;;;;;;;;8258121;28;20026;-71
2023/07/25 05:40:08;;;;;;;2.23;1.47;;;;;;;;;;8252076;28;20018;-73
2023/07/25 05:44:09;;;;;;;1.30;1.20;;;;;;;;;;8244650;28;20030;-73
2023/07/25 05:48:10;;;;;;;2.20;2.03;;;;;;;;;;8249950;28;20065;-72
2023/07/25 05:52:10;;;;;;;2.03;1.83;;;;;;;;;;8268629;28;20037;-74
2023/07/25 05:56:10;;;;;;;3.78;2.22;;;;;;;;;;8260776;28;20026;-71
2023/07/25 06:00:11;;;;;;;2.60;2.10;;;;;;;;;;8248852;28;20024;-71
2023/07/25 06:04:13;;;;;;;10.32;2.63;;;;;;;;;;8245024;28;20022;-71
2023/07/25 06:08:13;;;;;;;3.38;2.20;;;;;;;;;;8247230;28;20029;-71
2023/07/25 06:12:14;;;;;;;2.97;2.47;;;;;;;;;;8243550;28;20053;-72
2023/07/25 06:16:14;;;;;;;2.67;2.08;;;;;;;;;;8249070;28;20133;-71
2023/07/25 06:20:15;;;;;;;2.95;2.33;;;;;;;;;;8246772;28;20022;-71
2023/07/25 06:24:15;;;;;;;3.72;2.22;;;;;;;;;;8247321;28;20026;-74
2023/07/25 06:28:15;;;;;;;3.93;2.20;;;;;;;;;;8248015;28;20033;-71
2023/07/25 06:32:15;;;;;;;2.65;2.45;;;;;;;;;;8267599;28;20347;-71
2023/07/25 06:36:22;;;;;;;2.55;2.10;;;;;;;;;;8294141;28;20021;-73
2023/07/25 06:40:22;;;;;;;2.58;2.38;;;;;;;;;;8280070;28;20026;-71
2023/07/25 06:44:23;;;;;;;3.28;2.30;;;;;;;;;;8280302;28;20049;-72
2023/07/25 06:48:23;;;;;;;2.38;2.10;;;;;;;;;;8266852;28;20951;-70
2023/07/25 06:52:25;;;;;;;7.45;2.35;;;;;;;;;;8274773;28;20060;-71
2023/07/25 06:56:26;;;;;;;4.85;2.20;;;;;;;;;;8279562;28;20030;-71
2023/07/25 07:00:26;;;;;;;2.45;2.00;;;;;;;;;;8263499;28;20049;-71
2023/07/25 07:04:27;;;;;;;2.97;1.80;;;;;;;;;;8264485;28;20041;-75
2023/07/25 07:08:27;;;;;;;4.22;2.20;;;;;;;;;;8256806;28;20033;-71
2023/07/25 07:12:28;;;;;;;2.83;2.00;;;;;;;;;;8275271;28;20030;-71
2023/07/25 07:16:30;;;;;;;2.45;2.17;;;;;;;;;;8258434;28;20384;-71
2023/07/25 07:20:30;;;;;;;3.53;2.28;;;;;;;;;;8251710;28;20049;-71
2023/07/25 07:24:33;;;;;;;2.95;2.53;;;;;;;;;;8269816;28;20538;-75
2023/07/25 07:28:33;;;;;;;2.77;2.53;;;;;;;;;;8262787;28;20120;-71
2023/07/25 07:32:35;;;;;;;4.03;2.60;;;;;;;;;;8267289;28;20470;-71
2023/07/25 07:36:35;;;;;;;3.75;2.80;;;;;;;;;;8278480;28;20230;-73
2023/07/25 07:40:36;;;;;;;6.77;2.93;;;;;;;;;;8276650;28;20049;-73
2023/07/25 07:44:36;;;;;;;4.07;2.63;;;;;;;;;;8251118;28;20030;-72
2023/07/25 07:48:36;;;;;;;3.17;2.58;;;;;;;;;;8242661;28;20277;-72
2023/07/25 07:52:40;;;;;;;3.22;2.70;;;;;;;;;;8243529;28;20088;-72
2023/07/25 07:56:41;;;;;;;3.47;2.80;;;;;;;;;;8244833;28;20027;-72
2023/07/25 08:00:41;;;;;;;4.00;2.70;;;;;;;;;;8242785;28;20090;-72
2023/07/25 08:04:41;;;;;;;1.20;1.10;;;;;;;;;;8242708;28;20041;-72
2023/07/25 08:08:42;;;;;;;1.15;0.73;;;;;;;;;;8244112;28;20022;-71
2023/07/25 08:12:43;;;;;;;1.65;1.05;;;;;;;;;;8225285;28;20030;-72
2023/07/25 08:16:43;;;;;;;4.97;1.13;;;;;;;;;;8224786;28;20030;-72
2023/07/25 08:20:45;;;;;;;5.40;1.00;;;;;;;;;;8243325;28;20024;-72
2023/07/25 08:24:46;;;;;;;1.10;1.00;;;;;;;;;;8240277;28;20277;-73
2023/07/25 08:28:46;;;;;;;2.92;1.10;;;;;;;;;;8237980;28;20029;-73
2023/07/25 08:32:46;;;;;;;1.10;1.00;;;;;;;;;;8239415;28;20049;-73
2023/07/25 08:36:47;;;;;;;1.90;0.95;;;;;;;;;;8239318;28;20088;-73
2023/07/25 08:40:53;;;;;;;1.38;1.00;;;;;;;;;;8243210;28;20030;-73
2023/07/25 08:44:53;;;;;;;1.23;1.00;;;;;;;;;;8243080;28;20040;-73
2023/07/25 08:48:57;;;;;;;2.20;1.10;;;;;;;;;;8240487;28;20467;-72
2023/07/25 08:53:00;;;;;;;1.48;1.38;;;;;;;;;;8222999;28;20478;-73
2023/07/25 08:57:00;;;;;;;1.53;1.43;;;;;;;;;;8237482;28;20023;-72
2023/07/25 09:01:01;;;;;;;1.38;1.27;;;;;;;;;;8238530;28;20038;-72
2023/07/25 09:05:01;;;;;;;3.65;1.70;;;;;;;;;;8240896;28;20033;-72
2023/07/25 09:09:02;;;;;;;3.60;1.55;;;;;;;;;;8221054;28;20026;-71
2023/07/25 09:13:02;;;;;;;2.22;1.58;;;;;;;;;;8240887;28;20034;-71
2023/07/25 09:17:04;;;;;;;1.70;1.60;;;;;;;;;;8239389;28;20081;-71
2023/07/25 09:21:04;;;;;;;1.77;1.60;;;;;;;;;;8240864;28;20026;-71
2023/07/25 09:25:08;;;;;;;1.83;1.73;;;;;;;;;;8238892;28;20093;-71
2023/07/25 09:29:08;;;;;;;1.85;1.75;;;;;;;;;;8239544;28;20117;-72
2023/07/25 09:33:08;;;;;;;1.60;1.50;;;;;;;;;;8220750;28;20066;-72
2023/07/25 09:37:08;;;;;;;1.65;1.58;;;;;;;;;;8240152;28;20022;-71
2023/07/25 09:41:09;;;;;;;2.63;1.73;;;;;;;;;;8241936;28;20014;-71
2023/07/25 09:45:10;;;;;;;2.17;1.98;;;;;;;;;;8236875;28;20149;-71
2023/07/25 09:49:10;;;;;;;2.05;1.85;;;;;;;;;;8239931;28;20034;-71
2023/07/25 09:53:11;;;;;;;1.95;1.70;;;;;;;;;;8240657;28;20551;-71
2023/07/25 09:57:12;;;;;;;2.58;1.73;;;;;;;;;;8240929;28;20026;-70
2023/07/25 10:01:12;;;;;;;1.60;1.50;;;;;;;;;;8238870;28;20141;-71
2023/07/25 10:05:13;;;;;;;2.80;2.00;;;;;;;;;;8217560;28;20308;-71
2023/07/25 10:09:14;;;;;;;2.72;1.80;;;;;;;;;;8232957;28;20026;-71
2023/07/25 10:13:14;;;;;;;1.90;1.73;;;;;;;;;;8241038;28;20064;-71
2023/07/25 10:17:14;;;;;;;2.27;1.93;;;;;;;;;;8220695;28;20026;-71
2023/07/25 10:21:17;;;;;;;1.95;1.85;;;;;;;;;;8228777;28;20085;-71
2023/07/25 10:25:18;;;;;;;1.83;1.73;;;;;;;;;;8239224;28;20478;-71
2023/07/25 10:29:37;;;;;;;1.90;1.80;;;;;;;;;;8236892;28;20117;-71
2023/07/25 10:33:38;;;;;;;1.73;1.63;;;;;;;;;;8233309;28;20042;-71
2023/07/25 10:37:43;;;;;;;2.10;1.90;;;;;;;;;;8237180;28;20054;-71
2023/07/25 10:41:43;;;;;;;1.92;1.80;;;;;;;;;;8240149;28;20038;-72
2023/07/25 10:45:50;;;;;;;2.17;2.03;;;;;;;;;;8221178;28;20050;-70
2023/07/25 10:49:54;;;;;;;2.20;2.00;;;;;;;;;;8235435;28;20140;-71
2023/07/25 10:54:10;;;;;;;2.05;1.83;;;;;;;;;;8236026;28;20558;-71
2023/07/25 10:58:10;;;;;;;2.55;1.90;;;;;;;;;;8236798;28;20867;-71
2023/07/25 11:02:27;;;;;;;2.03;1.87;;;;;;;;;;8236122;28;20367;-71
2023/07/25 11:06:33;;;;;;;2.00;1.90;;;;;;;;;;8235818;28;21000;-71
2023/07/25 11:10:34;;;;;;;2.00;1.90;;;;;;;;;;8239792;28;20030;-68
2023/07/25 11:14:39;;;;;;;2.55;1.67;;;;;;;;;;8236079;28;20038;-69
2023/07/25 11:18:49;;;;;;;2.40;1.90;;;;;;;;;;8238730;28;20060;-68
2023/07/25 11:22:53;;;;;;;1.95;1.85;;;;;;;;;;8243330;28;20036;-68
2023/07/25 11:26:53;;;;;;;1.98;1.85;;;;;;;;;;8244298;28;20053;-68
2023/07/25 11:30:54;;;;;;;1.80;1.70;;;;;;;;;;8245654;28;20049;-68
2023/07/25 11:34:54;;;;;;;3.73;1.90;;;;;;;;;;8243814;28;20018;-69
2023/07/25 11:38:55;;;;;;;1.80;1.70;;;;;;;;;;8242402;28;20027;-68
2023/07/25 11:42:56;;;;;;;1.70;1.60;;;;;;;;;;8244992;28;20065;-69
2023/07/25 11:46:56;;;;;;;3.42;1.70;;;;;;;;;;8242881;28;20046;-69
2023/07/25 11:50:57;;;;;;;2.45;1.70;;;;;;;;;;8243115;28;20030;-69
2023/07/25 11:54:58;;;;;;;1.50;1.40;;;;;;;;;;8237094;28;20018;-69
2023/07/25 11:58:59;;;;;;;1.33;1.30;;;;;;;;;;8236679;28;20015;-69
2023/07/25 12:02:59;;;;;;;1.33;1.20;;;;;;;;;;8233596;28;20041;-69
2023/07/25 12:06:59;;;;;;;2.30;1.40;;;;;;;;;;8237287;28;20048;-69
2023/07/25 12:11:02;;;;;;;1.45;1.20;;;;;;;;;;8225871;28;20076;-69
2023/07/25 12:15:02;;;;;;;1.52;1.40;;;;;;;;;;8237681;28;20030;-69
2023/07/25 12:19:09;;;;;;;2.42;1.20;;;;;;;;;;8235729;28;20776;-69
2023/07/25 12:23:10;;;;;;;1.50;1.40;;;;;;;;;;8238050;28;20449;-69
2023/07/25 12:27:17;;;;;;;1.53;1.43;;;;;;;;;;8238467;28;20137;-69
2023/07/25 12:31:17;;;;;;;1.77;1.67;;;;;;;;;;8224204;28;20042;-69
2023/07/25 12:35:17;;;;;;;1.58;1.48;;;;;;;;;;8238183;28;20021;-69
2023/07/25 12:39:19;;;;;;;1.67;1.30;;;;;;;;;;8237513;28;20033;-69
2023/07/25 12:43:20;;;;;;;1.52;1.20;;;;;;;;;;8237816;28;20041;-69
2023/07/25 12:47:20;;;;;;;2.40;1.33;;;;;;;;;;8237624;28;20034;-69
2023/07/25 12:51:20;;;;;;;1.90;1.63;;;;;;;;;;8233736;28;20129;-69
2023/07/25 12:55:21;;;;;;;1.80;1.70;;;;;;;;;;8234429;28;20031;-69
2023/07/25 12:59:22;;;;;;;1.67;1.58;;;;;;;;;;8233577;28;20301;-70
2023/07/25 13:03:23;;;;;;;1.70;1.60;;;;;;;;;;8235788;28;20564;-69
2023/07/25 13:07:23;;;;;;;1.50;1.30;;;;;;;;;;8227159;28;20042;-69
2023/07/25 13:11:23;;;;;;;1.60;1.50;;;;;;;;;;8236301;28;20120;-69
2023/07/25 13:15:24;;;;;;;3.47;1.50;;;;;;;;;;8236580;28;20034;-69
2023/07/25 13:19:24;;;;;;;2.78;1.60;;;;;;;;;;8234995;28;20042;-69
2023/07/25 13:23:24;;;;;;;1.87;1.43;;;;;;;;;;8235894;28;20991;-69
2023/07/25 13:27:26;;;;;;;2.08;1.42;;;;;;;;;;8237006;28;20038;-70
2023/07/25 13:31:26;;;;;;;1.65;1.55;;;;;;;;;;8237134;28;20093;-69
2023/07/25 13:35:26;;;;;;;4.15;1.67;;;;;;;;;;8236459;28;20034;-69
2023/07/25 13:39:26;;;;;;;1.60;1.50;;;;;;;;;;8236296;28;20025;-69
2023/07/25 13:43:26;;;;;;;2.35;1.70;;;;;;;;;;8235887;28;20027;-69
2023/07/25 13:47:27;;;;;;;2.38;1.70;;;;;;;;;;8235049;28;20042;-70
2023/07/25 13:51:27;;;;;;;1.63;1.53;;;;;;;;;;8236464;28;20030;-69
2023/07/25 13:55:27;;;;;;;1.77;1.40;;;;;;;;;;8235907;28;20034;-69
2023/07/25 13:59:28;;;;;;;1.77;1.67;;;;;;;;;;8219326;28;21274;-70
2023/07/25 14:03:28;;;;;;;2.20;1.80;;;;;;;;;;8235403;28;20285;-70
2023/07/25 14:07:28;;;;;;;2.93;1.40;;;;;;;;;;8234908;28;20027;-70
2023/07/25 14:11:29;;;;;;;1.35;1.27;;;;;;;;;;8239008;28;21185;-70
2023/07/25 14:15:30;;;;;;;3.47;1.70;;;;;;;;;;8235700;28;20038;-70
2023/07/25 14:19:30;;;;;;;2.33;1.50;;;;;;;;;;8235886;28;20032;-70
2023/07/25 14:23:30;;;;;;;3.38;1.85;;;;;;;;;;8235137;28;20025;-70
2023/07/25 14:27:31;;;;;;;3.75;2.00;;;;;;;;;;8235017;28;20031;-73
2023/07/25 14:31:31;;;;;;;4.32;1.80;;;;;;;;;;8235459;28;20042;-72
2023/07/25 14:35:31;;;;;;;4.32;1.67;;;;;;;;;;8236394;28;20033;-73
2023/07/25 14:39:31;;;;;;;1.37;1.27;;;;;;;;;;8237238;28;20360;-73
2023/07/25 14:43:32;;;;;;;2.40;1.55;;;;;;;;;;8236915;28;20041;-72
2023/07/25 14:47:32;;;;;;;2.70;1.27;;;;;;;;;;8233220;28;20038;-72
2023/07/25 14:51:33;;;;;;;2.28;1.48;;;;;;;;;;8233328;28;20447;-73
2023/07/25 14:55:34;;;;;;;2.70;1.20;;;;;;;;;;8234241;28;20513;-72
2023/07/25 14:59:34;;;;;;;1.98;1.15;;;;;;;;;;8239050;28;20026;-73
2023/07/25 15:03:34;;;;;;;1.90;1.23;;;;;;;;;;8241849;28;20034;-73
2023/07/25 15:07:34;;;;;;;2.97;1.08;;;;;;;;;;8240077;28;20037;-73
2023/07/25 15:11:35;;;;;;;2.80;1.30;;;;;;;;;;8242131;28;20065;-73
2023/07/25 15:15:35;;;;;;;3.00;1.45;;;;;;;;;;8239971;28;20031;-73
2023/07/25 15:19:36;;;;;;;2.00;1.27;;;;;;;;;;8232355;28;20117;-72
2023/07/25 15:23:36;;;;;;;2.53;1.27;;;;;;;;;;8241266;28;20030;-73
2023/07/25 15:27:36;;;;;;;1.30;1.20;;;;;;;;;;8224991;28;20065;-73
2023/07/25 15:31:36;;;;;;;3.43;1.10;;;;;;;;;;8222409;28;20053;-73
2023/07/25 15:35:36;;;;;;;3.13;1.30;;;;;;;;;;8242707;28;20052;-73
2023/07/25 15:39:37;;;;;;;2.37;1.20;;;;;;;;;;8242836;28;20172;-74
2023/07/25 15:43:37;;;;;;;2.80;1.30;;;;;;;;;;8239786;28;20281;-73
2023/07/25 15:47:37;;;;;;;2.25;1.25;;;;;;;;;;8242542;28;20044;-73
2023/07/25 15:51:37;;;;;;;1.80;1.30;;;;;;;;;;8238722;28;21158;-73
2023/07/25 15:55:38;;;;;;;2.37;1.30;;;;;;;;;;8238039;28;20021;-73
2023/07/25 15:59:39;;;;;;;1.75;1.40;;;;;;;;;;8220439;28;20057;-73
2023/07/25 16:03:42;;;;;;;3.72;1.50;;;;;;;;;;8242410;28;20074;-73
2023/07/25 16:07:42;;;;;;;2.40;1.48;;;;;;;;;;8232611;28;20101;-72
2023/07/25 16:11:42;;;;;;;3.08;1.70;;;;;;;;;;8240247;28;20038;-73
2023/07/25 16:15:46;;;;;;;2.65;1.60;;;;;;;;;;8239754;28;20030;-73
2023/07/25 16:19:46;;;;;;;2.85;1.63;;;;;;;;;;8239751;28;20076;-73
2023/07/25 16:23:46;;;;;;;3.47;1.70;;;;;;;;;;8242869;28;20038;-73
2023/07/25 16:27:48;;;;;;;3.53;2.00;;;;;;;;;;8239585;28;20075;-73
2023/07/25 16:31:48;;;;;;;6.85;1.90;;;;;;;;;;8240633;28;20301;-73
2023/07/25 16:35:48;;;;;;;2.92;1.92;;;;;;;;;;8243063;28;20030;-72
2023/07/25 16:39:48;;;;;;;5.18;2.47;;;;;;;;;;8241467;28;20022;-73
2023/07/25 16:43:49;;;;;;;3.03;2.70;;;;;;;;;;8244090;28;20037;-73
2023/07/25 16:47:49;;;;;;;3.75;2.40;;;;;;;;;;8241414;28;20042;-73
2023/07/25 16:51:49;;;;;;;4.63;2.70;;;;;;;;;;8242103;28;20326;-73
2023/07/25 16:55:49;;;;;;;4.75;2.67;;;;;;;;;;8244281;28;20421;-78
2023/07/25 16:59:49;;;;;;;5.00;2.80;;;;;;;;;;8242144;28;20026;-73
2023/07/25 17:03:50;;;;;;;7.22;3.17;;;;;;;;;;8242144;28;20042;-73
2023/07/25 17:07:50;;;;;;;4.93;2.83;;;;;;;;;;8241122;28;20026;-73
2023/07/25 17:11:50;;;;;;;5.10;2.65;;;;;;;;;;8244497;28;20065;-73
2023/07/25 17:15:53;;;;;;;3.42;2.50;;;;;;;;;;8242968;28;20030;-73
2023/07/25 17:19:54;;;;;;;3.50;2.85;;;;;;;;;;8225079;28;20022;-73
2023/07/25 17:23:54;;;;;;;6.13;3.10;;;;;;;;;;8240410;28;20038;-73
2023/07/25 17:27:57;;;;;;;6.65;3.00;;;;;;;;;;8241634;28;20035;-73
2023/07/25 17:31:57;;;;;;;3.88;2.78;;;;;;;;;;8241137;28;20039;-73
2023/07/25 17:35:57;;;;;;;3.67;2.72;;;;;;;;;;8239836;28;20037;-73
2023/07/25 17:39:57;;;;;;;3.55;2.50;;;;;;;;;;8241453;28;20025;-73
2023/07/25 17:43:58;;;;;;;4.15;2.40;;;;;;;;;;8241302;28;20057;-72
2023/07/25 17:47:58;;;;;;;4.50;2.40;;;;;;;;;;8232796;28;20030;-73
2023/07/25 17:51:58;;;;;;;6.25;2.10;;;;;;;;;;8238980;28;20152;-73
2023/07/25 17:55:59;;;;;;;2.85;1.98;;;;;;;;;;8238825;28;20046;-73
2023/07/25 17:59:59;;;;;;;7.95;1.92;;;;;;;;;;8237857;28;20017;-73
2023/07/25 18:03:59;;;;;;;4.23;2.07;;;;;;;;;;8238839;28;20038;-73
2023/07/25 18:07:59;;;;;;;4.03;2.00;;;;;;;;;;8237055;28;20036;-73
2023/07/25 18:11:59;;;;;;;3.17;1.67;;;;;;;;;;8235032;28;20022;-74
2023/07/25 18:15:59;;;;;;;4.82;1.80;;;;;;;;;;8232232;28;20030;-73
2023/07/25 18:20:00;;;;;;;3.25;1.77;;;;;;;;;;8234871;28;20025;-73
2023/07/25 18:24:00;;;;;;;3.83;1.63;;;;;;;;;;8235239;28;20144;-74
2023/07/25 18:28:00;;;;;;;4.30;1.73;;;;;;;;;;8233946;28;20030;-73
2023/07/25 18:32:00;;;;;;;3.30;1.50;;;;;;;;;;8235759;28;20042;-73
2023/07/25 18:36:01;;;;;;;3.28;1.40;;;;;;;;;;8236337;28;20386;-73
2023/07/25 18:40:01;;;;;;;4.13;1.70;;;;;;;;;;8234828;28;20105;-74
2023/07/25 18:44:01;;;;;;;4.83;1.60;;;;;;;;;;8234020;28;20056;-73
2023/07/25 18:48:01;;;;;;;3.80;1.55;;;;;;;;;;8233020;28;20288;-73
2023/07/25 18:52:02;;;;;;;3.90;1.40;;;;;;;;;;8233411;28;20037;-74
2023/07/25 18:56:02;;;;;;;6.78;1.80;;;;;;;;;;8234502;28;20022;-73
2023/07/25 19:00:03;;;;;;;3.60;1.67;;;;;;;;;;8236093;28;20906;-73
2023/07/25 19:04:03;;;;;;;5.00;1.70;;;;;;;;;;8234259;28;20973;-73
2023/07/25 19:08:04;;;;;;;4.32;1.70;;;;;;;;;;8216719;28;20614;-74
2023/07/25 19:12:04;;;;;;;3.60;1.55;;;;;;;;;;8235364;28;20043;-74
2023/07/25 19:16:05;;;;;;;3.63;1.63;;;;;;;;;;8233188;28;20042;-73
2023/07/25 19:20:05;;;;;;;6.45;1.60;;;;;;;;;;8234151;28;20781;-73
2023/07/25 19:24:06;;;;;;;3.95;1.63;;;;;;;;;;8227128;28;20586;-74
2023/07/25 19:28:06;;;;;;;3.33;1.60;;;;;;;;;;8233749;28;20092;-74
2023/07/25 19:32:06;;;;;;;3.88;1.30;;;;;;;;;;8235570;28;20045;-74
2023/07/25 19:36:07;;;;;;;3.92;1.70;;;;;;;;;;8235275;28;20030;-74
2023/07/25 19:40:07;;;;;;;3.50;1.52;;;;;;;;;;8218178;28;20038;-74
2023/07/25 19:44:09;;;;;;;2.50;1.40;;;;;;;;;;8238778;28;20030;-74
2023/07/25 19:48:10;;;;;;;2.90;1.38;;;;;;;;;;8239002;28;20038;-73
2023/07/25 19:52:11;;;;;;;2.78;1.83;;;;;;;;;;8239133;28;20124;-74
2023/07/25 19:56:11;;;;;;;3.88;1.52;;;;;;;;;;8239085;28;20165;-74
2023/07/25 20:00:13;;;;;;;2.97;1.50;;;;;;;;;;8237179;28;20853;-75
2023/07/25 20:04:13;;;;;;;5.07;1.73;;;;;;;;;;8223094;28;20280;-74
2023/07/25 20:08:13;;;;;;;3.10;1.40;;;;;;;;;;8237146;28;20030;-74
2023/07/25 20:12:14;;;;;;;3.83;1.20;;;;;;;;;;8228548;28;20056;-74
2023/07/25 20:16:14;;;;;;;4.95;1.40;;;;;;;;;;8239369;28;20026;-74
2023/07/25 20:20:14;;;;;;;1.77;1.23;;;;;;;;;;8238489;28;20086;-74
2023/07/25 20:24:14;;;;;;;2.90;1.55;;;;;;;;;;8239760;28;20030;-74
2023/07/25 20:28:15;;;;;;;2.22;1.35;;;;;;;;;;8221328;28;20118;-74
2023/07/25 20:32:15;;;;;;;4.30;1.60;;;;;;;;;;8237246;28;20038;-74
2023/07/25 20:36:15;;;;;;;3.08;1.50;;;;;;;;;;8237713;28;20036;-74
2023/07/25 20:40:15;;;;;;;2.65;1.40;;;;;;;;;;8237193;28;20053;-74
2023/07/25 20:44:16;;;;;;;4.50;1.73;;;;;;;;;;8239152;28;20030;-74
2023/07/25 20:48:16;;;;;;;5.67;1.90;;;;;;;;;;8234311;28;20356;-74
2023/07/25 20:52:16;;;;;;;9.03;1.80;;;;;;;;;;8230449;28;20048;-73
2023/07/25 20:56:17;;;;;;;7.03;1.60;;;;;;;;;;8213621;28;20021;-71
2023/07/25 21:00:17;;;;;;;1.27;1.08;;;;;;;;;;8227723;28;20034;-71
2023/07/25 21:04:19;;;;;;;3.63;1.50;;;;;;;;;;8228530;28;20026;-71
2023/07/25 21:08:19;;;;;;;5.22;1.50;;;;;;;;;;8222228;28;20095;-71
2023/07/25 21:12:19;;;;;;;2.53;1.42;;;;;;;;;;8231991;28;20030;-71
2023/07/25 21:16:19;;;;;;;8.25;1.52;;;;;;;;;;8230426;28;20058;-71
2023/07/25 21:20:19;;;;;;;6.50;1.50;;;;;;;;;;8230199;28;20936;-71
2023/07/25 21:24:20;;;;;;;1.80;1.20;;;;;;;;;;8227215;28;20301;-71
2023/07/25 21:28:20;;;;;;;2.70;1.30;;;;;;;;;;8229357;28;21105;-71
2023/07/25 21:32:21;;;;;;;3.05;1.50;;;;;;;;;;8216704;28;20053;-73
2023/07/25 21:36:21;;;;;;;3.50;1.37;;;;;;;;;;8232532;28;20018;-72
2023/07/25 21:40:21;;;;;;;5.68;1.70;;;;;;;;;;8232689;28;20272;-71
2023/07/25 21:44:22;;;;;;;4.15;1.35;;;;;;;;;;8232034;28;20141;-71
2023/07/25 21:48:22;;;;;;;1.55;1.20;;;;;;;;;;8227902;28;20597;-71
2023/07/25 21:52:22;;;;;;;3.60;1.38;;;;;;;;;;8227954;28;20043;-71
2023/07/25 21:56:22;;;;;;;1.80;1.27;;;;;;;;;;8213457;28;20049;-71
2023/07/25 22:00:22;;;;;;;4.57;1.35;;;;;;;;;;8230227;28;20352;-72
2023/07/25 22:04:23;;;;;;;5.03;1.40;;;;;;;;;;8215317;28;20141;-71
2023/07/25 22:08:23;;;;;;;3.03;1.27;;;;;;;;;;8233018;28;20311;-71
2023/07/25 22:12:23;;;;;;;3.47;1.60;;;;;;;;;;8227253;28;20053;-71
2023/07/25 22:16:24;;;;;;;4.50;1.20;;;;;;;;;;8228844;28;20609;-71
2023/07/25 22:20:24;;;;;;;2.33;1.10;;;;;;;;;;8229031;28;20797;-72
2023/07/25 22:24:25;;;;;;;3.28;1.20;;;;;;;;;;8235932;28;20041;-71
2023/07/25 22:28:25;;;;;;;1.55;1.02;;;;;;;;;;8239254;28;20038;-71
2023/07/25 22:32:25;;;;;;;3.63;1.30;;;;;;;;;;8234741;28;20051;-71
2023/07/25 22:36:26;;;;;;;1.95;1.20;;;;;;;;;;8234909;28;20108;-71
2023/07/25 22:40:26;;;;;;;3.50;1.60;;;;;;;;;;8236586;28;20658;-71
2023/07/25 22:44:26;;;;;;;2.17;1.20;;;;;;;;;;8237776;28;20581;-71
2023/07/25 22:48:27;;;;;;;5.10;1.20;;;;;;;;;;8235182;28;20049;-71
2023/07/25 22:52:28;;;;;;;2.83;1.20;;;;;;;;;;8235670;28;20487;-71
2023/07/25 22:56:28;;;;;;;4.45;1.40;;;;;;;;;;8234235;28;20019;-71
2023/07/25 23:00:28;;;;;;;2.08;1.20;;;;;;;;;;8236222;28;20386;-71
2023/07/25 23:04:28;;;;;;;3.00;1.20;;;;;;;;;;8234756;28;20854;-72
2023/07/25 23:08:29;;;;;;;2.33;1.10;;;;;;;;;;8235527;28;20034;-71
2023/07/25 23:12:29;;;;;;;4.47;1.25;;;;;;;;;;8239468;28;20327;-71
2023/07/25 23:16:29;;;;;;;3.97;1.35;;;;;;;;;;8240736;28;20034;-71
2023/07/25 23:20:29;;;;;;;1.60;1.13;;;;;;;;;;8242470;28;20057;-71
2023/07/25 23:24:30;;;;;;;3.70;1.17;;;;;;;;;;8244882;28;20026;-71
2023/07/25 23:28:30;;;;;;;1.92;1.05;;;;;;;;;;8244073;28;20033;-71
2023/07/25 23:32:30;;;;;;;2.15;1.20;;;;;;;;;;8242055;28;20153;-71
2023/07/25 23:36:31;;;;;;;2.67;1.15;;;;;;;;;;8243581;28;20021;-71
2023/07/25 23:40:31;;;;;;;1.23;1.13;;;;;;;;;;8243491;28;20026;-71
2023/07/25 23:44:31;;;;;;;3.58;0.90;;;;;;;;;;8243757;28;20030;-71
2023/07/25 23:48:35;;;;;;;4.25;1.20;;;;;;;;;;8241453;28;20045;-71
2023/07/25 23:52:35;;;;;;;4.88;1.15;;;;;;;;;;8240831;28;20076;-71
2023/07/25 23:56:35;;;;;;;2.00;1.00;;;;;;;;;;8241527;28;20031;-71
